ZSSS/SHA METAR and TAF weather

Enter ICAO airport designator
Station Type Date Time Source
ZSSS METAR 2019/08/25 18:00 UTC NOAA

ZSSS 251800Z 16004MPS 9999 BKN015 29/26 Q1006 NOSIG


Station Type Date Time Source
ZSSS Decoded METAR 2019/08/25 18:00 UTC NOAA

Station name not available
Aug 25, 2019 - 02:00 PM EDT / 2019.08.25 1800 UTC
Wind: from the SSE (160 degrees) at 9 MPH (8 KT):0
Visibility: greater than 7 mile(s):0
Sky conditions: mostly cloudy
Temperature: 84 F (29 C)
Dew Point: 78 F (26 C)
Relative Humidity: 83%
Pressure (altimeter): 29.71 in. Hg (1006 hPa)
ob: ZSSS 251800Z 16004MPS 9999 BKN015 29/26 Q1006 NOSIG
cycle: 18

Station Type Date Time Source
ZSSS TAF 2019/08/25 18:03 UTC NOAA

TAF ZSSS 251510Z 2518/2618 14004MPS 6000 BKN015 TX35/2606Z TN26/2521Z

Example: see airport list